sensor_id;sensor_type;location;lat;lon;timestamp;pressure;altitude;pressure_sealevel;temperature;humidity
52957;BME280;38819;42.692;23.342;2022-08-21T00:00:33;94758.75;;;21.02;76.39
52957;BME280;38819;42.692;23.342;2022-08-21T00:03:02;94756.88;;;21.09;77.57
52957;BME280;38819;42.692;23.342;2022-08-21T00:05:29;94749.13;;;21.15;77.07
52957;BME280;38819;42.692;23.342;2022-08-21T00:07:55;94751.91;;;21.19;76.83
52957;BME280;38819;42.692;23.342;2022-08-21T00:10:21;94747.63;;;21.21;76.96
52957;BME280;38819;42.692;23.342;2022-08-21T00:12:47;94737.81;;;21.20;77.54
52957;BME280;38819;42.692;23.342;2022-08-21T00:15:16;94748.84;;;21.24;76.26
52957;BME280;38819;42.692;23.342;2022-08-21T00:17:43;94741.00;;;21.26;76.07
52957;BME280;38819;42.692;23.342;2022-08-21T00:20:11;94736.50;;;21.10;75.34
52957;BME280;38819;42.692;23.342;2022-08-21T00:22:39;94738.91;;;21.16;75.59
52957;BME280;38819;42.692;23.342;2022-08-21T00:25:06;94736.59;;;21.18;75.76
52957;BME280;38819;42.692;23.342;2022-08-21T00:27:32;94733.75;;;21.10;75.22
52957;BME280;38819;42.692;23.342;2022-08-21T00:29:58;94731.44;;;21.13;75.67
52957;BME280;38819;42.692;23.342;2022-08-21T00:32:25;94732.56;;;21.12;75.69
52957;BME280;38819;42.692;23.342;2022-08-21T00:34:51;94726.78;;;21.17;75.38
52957;BME280;38819;42.692;23.342;2022-08-21T00:37:17;94719.19;;;21.06;76.40
52957;BME280;38819;42.692;23.342;2022-08-21T00:39:43;94715.72;;;21.13;75.78
52957;BME280;38819;42.692;23.342;2022-08-21T00:42:09;94725.94;;;21.13;77.67
52957;BME280;38819;42.692;23.342;2022-08-21T00:44:35;94722.41;;;21.12;78.18
52957;BME280;38819;42.692;23.342;2022-08-21T00:47:01;94727.47;;;21.10;77.17
52957;BME280;38819;42.692;23.342;2022-08-21T00:49:26;94734.13;;;21.09;78.14
52957;BME280;38819;42.692;23.342;2022-08-21T00:51:55;94738.47;;;21.10;78.32
52957;BME280;38819;42.692;23.342;2022-08-21T00:54:25;94740.94;;;21.19;77.99
52957;BME280;38819;42.692;23.342;2022-08-21T00:56:54;94737.44;;;21.22;77.71
52957;BME280;38819;42.692;23.342;2022-08-21T00:59:23;94726.47;;;21.22;78.38
52957;BME280;38819;42.692;23.342;2022-08-21T01:01:49;94726.34;;;21.15;77.93
52957;BME280;38819;42.692;23.342;2022-08-21T01:04:15;94720.13;;;21.18;77.68
52957;BME280;38819;42.692;23.342;2022-08-21T01:06:41;94713.50;;;21.22;77.78
52957;BME280;38819;42.692;23.342;2022-08-21T01:09:07;94710.41;;;21.24;78.08
52957;BME280;38819;42.692;23.342;2022-08-21T01:11:33;94717.75;;;21.16;78.39
52957;BME280;38819;42.692;23.342;2022-08-21T01:13:58;94718.09;;;21.15;78.46
52957;BME280;38819;42.692;23.342;2022-08-21T01:16:24;94706.75;;;21.16;78.56
52957;BME280;38819;42.692;23.342;2022-08-21T01:18:50;94706.72;;;21.13;78.82
52957;BME280;38819;42.692;23.342;2022-08-21T01:21:19;94702.34;;;21.08;78.94
52957;BME280;38819;42.692;23.342;2022-08-21T01:23:48;94709.00;;;21.07;78.70
52957;BME280;38819;42.692;23.342;2022-08-21T01:26:15;94697.69;;;21.12;78.78
52957;BME280;38819;42.692;23.342;2022-08-21T01:28:45;94705.88;;;21.08;78.96
52957;BME280;38819;42.692;23.342;2022-08-21T01:31:14;94703.16;;;21.08;79.38
52957;BME280;38819;42.692;23.342;2022-08-21T01:33:40;94710.16;;;21.06;79.35
52957;BME280;38819;42.692;23.342;2022-08-21T01:36:06;94700.97;;;20.95;78.93
52957;BME280;38819;42.692;23.342;2022-08-21T01:38:32;94691.91;;;20.90;78.54
52957;BME280;38819;42.692;23.342;2022-08-21T01:40:58;94705.38;;;20.99;78.98
52957;BME280;38819;42.692;23.342;2022-08-21T01:43:23;94715.28;;;21.07;79.39
52957;BME280;38819;42.692;23.342;2022-08-21T01:45:49;94705.38;;;20.99;79.44
52957;BME280;38819;42.692;23.342;2022-08-21T01:48:14;94711.38;;;21.08;78.92
52957;BME280;38819;42.692;23.342;2022-08-21T01:50:39;94710.19;;;21.09;78.82
52957;BME280;38819;42.692;23.342;2022-08-21T01:53:05;94717.28;;;21.10;78.76
52957;BME280;38819;42.692;23.342;2022-08-21T01:55:30;94716.09;;;21.12;78.63
52957;BME280;38819;42.692;23.342;2022-08-21T01:57:57;94718.31;;;20.99;78.62
52957;BME280;38819;42.692;23.342;2022-08-21T02:00:24;94724.56;;;20.99;78.63
52957;BME280;38819;42.692;23.342;2022-08-21T02:02:50;94708.47;;;20.98;78.96
52957;BME280;38819;42.692;23.342;2022-08-21T02:05:16;94713.47;;;20.88;78.90
52957;BME280;38819;42.692;23.342;2022-08-21T02:07:44;94721.66;;;20.85;79.16
52957;BME280;38819;42.692;23.342;2022-08-21T02:10:11;94730.25;;;20.83;79.21
52957;BME280;38819;42.692;23.342;2022-08-21T02:12:37;94729.88;;;20.85;78.88
52957;BME280;38819;42.692;23.342;2022-08-21T02:15:04;94729.13;;;20.88;78.38
52957;BME280;38819;42.692;23.342;2022-08-21T02:17:42;94732.88;;;20.76;78.79
52957;BME280;38819;42.692;23.342;2022-08-21T02:20:09;94731.69;;;20.73;79.45
52957;BME280;38819;42.692;23.342;2022-08-21T02:22:35;94735.63;;;20.76;78.86
52957;BME280;38819;42.692;23.342;2022-08-21T02:25:00;94727.84;;;20.78;78.81
52957;BME280;38819;42.692;23.342;2022-08-21T02:27:26;94724.63;;;20.76;78.91
52957;BME280;38819;42.692;23.342;2022-08-21T02:29:51;94724.59;;;20.72;78.62
52957;BME280;38819;42.692;23.342;2022-08-21T02:32:16;94735.66;;;20.80;78.60
52957;BME280;38819;42.692;23.342;2022-08-21T02:34:42;94743.91;;;20.80;78.31
52957;BME280;38819;42.692;23.342;2022-08-21T02:37:07;94738.84;;;20.82;78.95
52957;BME280;38819;42.692;23.342;2022-08-21T02:39:33;94737.81;;;20.90;78.86
52957;BME280;38819;42.692;23.342;2022-08-21T02:41:59;94732.72;;;20.92;78.95
52957;BME280;38819;42.692;23.342;2022-08-21T02:44:25;94735.78;;;20.87;79.11
52957;BME280;38819;42.692;23.342;2022-08-21T02:46:50;94732.88;;;20.76;79.10
52957;BME280;38819;42.692;23.342;2022-08-21T02:49:16;94738.03;;;20.81;79.30
52957;BME280;38819;42.692;23.342;2022-08-21T02:51:41;94742.38;;;20.82;79.12
52957;BME280;38819;42.692;23.342;2022-08-21T02:54:07;94740.00;;;20.81;79.33
52957;BME280;38819;42.692;23.342;2022-08-21T02:56:32;94735.66;;;20.80;79.66
52957;BME280;38819;42.692;23.342;2022-08-21T02:58:58;94730.94;;;20.77;79.54
52957;BME280;38819;42.692;23.342;2022-08-21T03:01:23;94739.97;;;20.77;80.31
52957;BME280;38819;42.692;23.342;2022-08-21T03:03:49;94739.69;;;20.86;79.50
52957;BME280;38819;42.692;23.342;2022-08-21T03:06:19;94740.88;;;20.85;80.01
52957;BME280;38819;42.692;23.342;2022-08-21T03:08:45;94748.00;;;20.93;79.43
52957;BME280;38819;42.692;23.342;2022-08-21T03:11:11;94744.03;;;20.87;79.85
52957;BME280;38819;42.692;23.342;2022-08-21T03:13:37;94751.19;;;20.95;79.49
52957;BME280;38819;42.692;23.342;2022-08-21T03:16:04;94746.53;;;20.99;79.12
52957;BME280;38819;42.692;23.342;2022-08-21T03:18:29;94735.09;;;20.94;79.18
52957;BME280;38819;42.692;23.342;2022-08-21T03:20:55;94735.16;;;20.97;78.33
52957;BME280;38819;42.692;23.342;2022-08-21T03:23:20;94734.69;;;20.91;78.59
52957;BME280;38819;42.692;23.342;2022-08-21T03:25:46;94733.25;;;20.75;79.28
52957;BME280;38819;42.692;23.342;2022-08-21T03:28:16;94743.69;;;20.65;79.20
52957;BME280;38819;42.692;23.342;2022-08-21T03:30:44;94748.50;;;20.49;79.53
52957;BME280;38819;42.692;23.342;2022-08-21T03:33:10;94745.56;;;20.61;79.74
52957;BME280;38819;42.692;23.342;2022-08-21T03:35:36;94744.16;;;20.48;80.09
52957;BME280;38819;42.692;23.342;2022-08-21T03:38:01;94746.06;;;20.44;80.85
52957;BME280;38819;42.692;23.342;2022-08-21T03:40:27;94736.56;;;20.38;79.86
52957;BME280;38819;42.692;23.342;2022-08-21T03:42:52;94735.53;;;20.23;80.88
52957;BME280;38819;42.692;23.342;2022-08-21T03:45:18;94731.03;;;20.11;81.99
52957;BME280;38819;42.692;23.342;2022-08-21T03:47:56;94732.13;;;20.06;82.29
52957;BME280;38819;42.692;23.342;2022-08-21T03:50:24;94738.28;;;19.99;82.51
52957;BME280;38819;42.692;23.342;2022-08-21T03:52:50;94733.78;;;20.11;82.57
52957;BME280;38819;42.692;23.342;2022-08-21T03:55:15;94743.03;;;20.03;82.56
52957;BME280;38819;42.692;23.342;2022-08-21T03:57:41;94749.69;;;20.02;82.25
52957;BME280;38819;42.692;23.342;2022-08-21T04:00:08;94748.38;;;19.95;82.90
52957;BME280;38819;42.692;23.342;2022-08-21T04:02:36;94752.72;;;19.96;82.80
52957;BME280;38819;42.692;23.342;2022-08-21T04:05:02;94756.31;;;20.01;82.70
52957;BME280;38819;42.692;23.342;2022-08-21T04:07:27;94762.72;;;20.08;82.34
52957;BME280;38819;42.692;23.342;2022-08-21T04:09:53;94767.97;;;20.17;81.74
52957;BME280;38819;42.692;23.342;2022-08-21T04:12:20;94755.97;;;20.25;81.42
52957;BME280;38819;42.692;23.342;2022-08-21T04:14:45;94752.81;;;20.23;81.10
52957;BME280;38819;42.692;23.342;2022-08-21T04:17:11;94758.81;;;20.32;81.11
52957;BME280;38819;42.692;23.342;2022-08-21T04:19:36;94760.09;;;20.39;80.69
52957;BME280;38819;42.692;23.342;2022-08-21T04:22:02;94747.22;;;20.43;80.93
52957;BME280;38819;42.692;23.342;2022-08-21T04:24:27;94749.66;;;20.48;80.68
52957;BME280;38819;42.692;23.342;2022-08-21T04:26:52;94751.00;;;20.58;79.27
52957;BME280;38819;42.692;23.342;2022-08-21T04:29:18;94746.31;;;20.58;78.87
52957;BME280;38819;42.692;23.342;2022-08-21T04:31:45;94752.16;;;20.57;78.65
52957;BME280;38819;42.692;23.342;2022-08-21T04:34:10;94750.94;;;20.54;78.71
52957;BME280;38819;42.692;23.342;2022-08-21T04:36:35;94751.41;;;20.60;79.16
52957;BME280;38819;42.692;23.342;2022-08-21T04:39:01;94752.34;;;20.67;79.10
52957;BME280;38819;42.692;23.342;2022-08-21T04:41:27;94750.03;;;20.69;79.38
52957;BME280;38819;42.692;23.342;2022-08-21T04:43:53;94738.59;;;20.64;78.74
52957;BME280;38819;42.692;23.342;2022-08-21T04:46:21;94752.03;;;20.72;78.69
52957;BME280;38819;42.692;23.342;2022-08-21T04:48:46;94754.03;;;20.76;78.30
52957;BME280;38819;42.692;23.342;2022-08-21T04:51:19;94748.28;;;20.84;77.91
52957;BME280;38819;42.692;23.342;2022-08-21T04:53:54;94753.81;;;20.88;77.46
52957;BME280;38819;42.692;23.342;2022-08-21T04:58:49;94748.78;;;20.90;77.86
52957;BME280;38819;42.692;23.342;2022-08-21T05:01:19;94746.03;;;20.90;77.62
52957;BME280;38819;42.692;23.342;2022-08-21T05:03:48;94749.66;;;20.98;77.72
52957;BME280;38819;42.692;23.342;2022-08-21T05:06:14;94749.69;;;21.01;78.06
52957;BME280;38819;42.692;23.342;2022-08-21T05:08:41;94751.78;;;21.12;77.39
52957;BME280;38819;42.692;23.342;2022-08-21T05:11:10;94750.59;;;21.09;77.09
52957;BME280;38819;42.692;23.342;2022-08-21T05:13:35;94756.09;;;21.09;76.97
52957;BME280;38819;42.692;23.342;2022-08-21T05:16:01;94745.56;;;21.15;77.05
52957;BME280;38819;42.692;23.342;2022-08-21T05:18:26;94756.59;;;21.18;76.95
52957;BME280;38819;42.692;23.342;2022-08-21T05:20:52;94750.03;;;21.26;77.00
52957;BME280;38819;42.692;23.342;2022-08-21T05:23:17;94745.31;;;21.23;76.21
52957;BME280;38819;42.692;23.342;2022-08-21T05:25:43;94750.66;;;21.13;75.70
52957;BME280;38819;42.692;23.342;2022-08-21T05:28:08;94757.19;;;21.04;76.32
52957;BME280;38819;42.692;23.342;2022-08-21T05:30:34;94752.97;;;21.10;76.53
52957;BME280;38819;42.692;23.342;2022-08-21T05:33:01;94746.59;;;21.03;76.41
52957;BME280;38819;42.692;23.342;2022-08-21T05:35:27;94755.75;;;21.14;76.49
52957;BME280;38819;42.692;23.342;2022-08-21T05:37:54;94759.94;;;21.04;76.40
52957;BME280;38819;42.692;23.342;2022-08-21T05:40:20;94741.63;;;21.12;76.36
52957;BME280;38819;42.692;23.342;2022-08-21T05:42:45;94746.00;;;21.17;76.79
52957;BME280;38819;42.692;23.342;2022-08-21T05:45:10;94739.84;;;21.27;76.37
52957;BME280;38819;42.692;23.342;2022-08-21T05:47:36;94735.59;;;21.33;76.00
52957;BME280;38819;42.692;23.342;2022-08-21T05:50:03;94734.84;;;21.36;75.80
52957;BME280;38819;42.692;23.342;2022-08-21T05:52:28;94726.94;;;21.31;75.41
52957;BME280;38819;42.692;23.342;2022-08-21T05:54:54;94735.75;;;21.14;76.39
52957;BME280;38819;42.692;23.342;2022-08-21T05:57:20;94728.91;;;21.31;75.86
52957;BME280;38819;42.692;23.342;2022-08-21T05:59:47;94737.22;;;21.38;75.54
52957;BME280;38819;42.692;23.342;2022-08-21T06:02:12;94732.63;;;21.45;75.74
52957;BME280;38819;42.692;23.342;2022-08-21T06:04:39;94733.00;;;21.44;74.51
52957;BME280;38819;42.692;23.342;2022-08-21T06:07:05;94738.81;;;21.39;74.64
52957;BME280;38819;42.692;23.342;2022-08-21T06:09:30;94728.88;;;21.27;75.82
52957;BME280;38819;42.692;23.342;2022-08-21T06:11:56;94734.06;;;21.36;75.29
52957;BME280;38819;42.692;23.342;2022-08-21T06:14:22;94734.06;;;21.36;74.77
52957;BME280;38819;42.692;23.342;2022-08-21T06:16:47;94733.34;;;21.39;74.78
52957;BME280;38819;42.692;23.342;2022-08-21T06:19:12;94728.63;;;21.39;74.63
52957;BME280;38819;42.692;23.342;2022-08-21T06:21:38;94729.22;;;21.52;74.50
52957;BME280;38819;42.692;23.342;2022-08-21T06:24:04;94737.06;;;21.54;74.18
52957;BME280;38819;42.692;23.342;2022-08-21T06:26:30;94732.38;;;21.54;73.88
52957;BME280;38819;42.692;23.342;2022-08-21T06:28:56;94735.63;;;21.63;74.41
52957;BME280;38819;42.692;23.342;2022-08-21T06:31:25;94730.16;;;21.67;73.61
52957;BME280;38819;42.692;23.342;2022-08-21T06:33:51;94744.38;;;21.76;73.32
52957;BME280;38819;42.692;23.342;2022-08-21T06:36:18;94733.88;;;21.86;73.11
52957;BME280;38819;42.692;23.342;2022-08-21T06:38:44;94730.81;;;21.91;73.38
52957;BME280;38819;42.692;23.342;2022-08-21T06:41:10;94735.53;;;21.94;72.81
52957;BME280;38819;42.692;23.342;2022-08-21T06:43:36;94739.06;;;21.94;71.96
52957;BME280;38819;42.692;23.342;2022-08-21T06:46:01;94733.28;;;22.07;71.51
52957;BME280;38819;42.692;23.342;2022-08-21T06:48:26;94729.38;;;22.08;71.48
52957;BME280;38819;42.692;23.342;2022-08-21T06:50:53;94741.69;;;22.21;71.06
52957;BME280;38819;42.692;23.342;2022-08-21T06:53:20;94734.75;;;22.31;70.87
52957;BME280;38819;42.692;23.342;2022-08-21T06:55:46;94744.03;;;22.19;71.58
52957;BME280;38819;42.692;23.342;2022-08-21T06:58:12;94735.81;;;22.23;70.92
52957;BME280;38819;42.692;23.342;2022-08-21T07:00:40;94747.75;;;22.37;69.37
52957;BME280;38819;42.692;23.342;2022-08-21T07:03:06;94747.00;;;22.41;69.53
52957;BME280;38819;42.692;23.342;2022-08-21T07:05:31;94758.06;;;22.48;69.95
52957;BME280;38819;42.692;23.342;2022-08-21T07:07:57;94751.34;;;22.45;70.12
52957;BME280;38819;42.692;23.342;2022-08-21T07:10:24;94750.13;;;22.39;71.76
52957;BME280;38819;42.692;23.342;2022-08-21T07:12:50;94741.41;;;22.30;69.48
52957;BME280;38819;42.692;23.342;2022-08-21T07:15:16;94737.91;;;22.36;69.75
52957;BME280;38819;42.692;23.342;2022-08-21T07:17:42;94740.28;;;22.34;69.02
52957;BME280;38819;42.692;23.342;2022-08-21T07:20:07;94746.19;;;22.40;68.87
52957;BME280;38819;42.692;23.342;2022-08-21T07:22:35;94745.13;;;22.52;68.30
52957;BME280;38819;42.692;23.342;2022-08-21T07:25:04;94740.44;;;22.52;68.32
52957;BME280;38819;42.692;23.342;2022-08-21T07:27:29;94739.72;;;22.66;69.63
52957;BME280;38819;42.692;23.342;2022-08-21T07:29:56;94741.00;;;22.76;68.96
52957;BME280;38819;42.692;23.342;2022-08-21T07:32:22;94737.47;;;22.79;68.62
52957;BME280;38819;42.692;23.342;2022-08-21T07:34:47;94728.88;;;22.88;67.52
52957;BME280;38819;42.692;23.342;2022-08-21T07:37:12;94724.59;;;22.94;68.11
52957;BME280;38819;42.692;23.342;2022-08-21T07:39:38;94733.28;;;23.03;68.32
52957;BME280;38819;42.692;23.342;2022-08-21T07:42:03;94723.84;;;23.01;66.96
52957;BME280;38819;42.692;23.342;2022-08-21T07:44:29;94716.72;;;22.96;67.14
52957;BME280;38819;42.692;23.342;2022-08-21T07:46:54;94724.59;;;22.98;66.98
52957;BME280;38819;42.692;23.342;2022-08-21T07:49:20;94709.19;;;22.82;66.90
52957;BME280;38819;42.692;23.342;2022-08-21T07:51:45;94714.22;;;22.73;68.26
52957;BME280;38819;42.692;23.342;2022-08-21T07:54:11;94721.31;;;22.74;68.09
52957;BME280;38819;42.692;23.342;2022-08-21T07:56:37;94714.59;;;22.71;67.97
52957;BME280;38819;42.692;23.342;2022-08-21T07:59:02;94725.28;;;22.80;67.30
52957;BME280;38819;42.692;23.342;2022-08-21T08:01:28;94724.09;;;22.78;67.19
52957;BME280;38819;42.692;23.342;2022-08-21T08:03:55;94716.22;;;22.80;67.72
52957;BME280;38819;42.692;23.342;2022-08-21T08:06:21;94721.38;;;22.85;66.48
52957;BME280;38819;42.692;23.342;2022-08-21T08:08:46;94714.31;;;22.84;67.23
52957;BME280;38819;42.692;23.342;2022-08-21T08:11:12;94721.78;;;22.87;67.09
52957;BME280;38819;42.692;23.342;2022-08-21T08:13:42;94717.50;;;22.97;66.38
52957;BME280;38819;42.692;23.342;2022-08-21T08:16:08;94718.41;;;23.08;66.41
52957;BME280;38819;42.692;23.342;2022-08-21T08:18:33;94720.72;;;23.02;66.53
52957;BME280;38819;42.692;23.342;2022-08-21T08:20:59;94716.34;;;22.94;66.38
52957;BME280;38819;42.692;23.342;2022-08-21T08:23:24;94709.59;;;22.88;66.42
52957;BME280;38819;42.692;23.342;2022-08-21T08:25:50;94715.84;;;22.78;67.15
52957;BME280;38819;42.692;23.342;2022-08-21T08:28:16;94714.72;;;22.86;66.46
52957;BME280;38819;42.692;23.342;2022-08-21T08:30:41;94721.38;;;22.85;66.68
52957;BME280;38819;42.692;23.342;2022-08-21T08:33:07;94717.16;;;23.02;66.15
52957;BME280;38819;42.692;23.342;2022-08-21T08:35:33;94713.66;;;23.08;66.29
52957;BME280;38819;42.692;23.342;2022-08-21T08:37:59;94716.53;;;23.26;66.20
52957;BME280;38819;42.692;23.342;2022-08-21T08:40:39;94718.13;;;23.35;66.09
52957;BME280;38819;42.692;23.342;2022-08-21T08:43:07;94717.38;;;23.41;65.29
52957;BME280;38819;42.692;23.342;2022-08-21T08:45:36;94720.59;;;23.54;64.92
52957;BME280;38819;42.692;23.342;2022-08-21T08:48:09;94719.84;;;23.68;64.91
52957;BME280;38819;42.692;23.342;2022-08-21T08:50:46;94720.31;;;23.84;65.07
52957;BME280;38819;42.692;23.342;2022-08-21T08:53:37;94720.31;;;23.99;64.61
52957;BME280;38819;42.692;23.342;2022-08-21T08:56:09;94714.03;;;24.05;63.50
52957;BME280;38819;42.692;23.342;2022-08-21T08:58:39;94709.72;;;24.08;62.69
52957;BME280;38819;42.692;23.342;2022-08-21T09:01:13;94707.72;;;24.12;61.54
52957;BME280;38819;42.692;23.342;2022-08-21T09:03:41;94705.00;;;24.19;61.52
52957;BME280;38819;42.692;23.342;2022-08-21T09:06:17;94699.88;;;24.21;61.16
52957;BME280;38819;42.692;23.342;2022-08-21T09:08:57;94701.06;;;24.31;60.68
52957;BME280;38819;42.692;23.342;2022-08-21T09:11:47;94692.00;;;24.38;60.36
52957;BME280;38819;42.692;23.342;2022-08-21T09:25:15;94679.41;;;24.55;60.03
52957;BME280;38819;42.692;23.342;2022-08-21T09:27:42;94675.06;;;24.61;59.76
52957;BME280;38819;42.692;23.342;2022-08-21T09:30:08;94669.91;;;24.63;59.40
52957;BME280;38819;42.692;23.342;2022-08-21T09:32:36;94685.28;;;24.71;59.48
52957;BME280;38819;42.692;23.342;2022-08-21T09:35:17;94667.91;;;24.82;59.51
52957;BME280;38819;42.692;23.342;2022-08-21T09:40:39;94676.56;;;24.94;59.94
52957;BME280;38819;42.692;23.342;2022-08-21T09:45:32;94678.13;;;24.95;60.46
52957;BME280;38819;42.692;23.342;2022-08-21T09:48:17;94669.47;;;24.90;60.60
52957;BME280;38819;42.692;23.342;2022-08-21T09:50:44;94666.72;;;24.90;59.08
52957;BME280;38819;42.692;23.342;2022-08-21T09:53:21;94678.53;;;25.01;59.52
52957;BME280;38819;42.692;23.342;2022-08-21T09:55:52;94670.66;;;24.89;59.81
52957;BME280;38819;42.692;23.342;2022-08-21T09:58:37;94675.41;;;24.81;59.69
52957;BME280;38819;42.692;23.342;2022-08-21T10:01:06;94663.16;;;24.82;59.55
52957;BME280;38819;42.692;23.342;2022-08-21T10:03:32;94659.66;;;24.78;59.28
52957;BME280;38819;42.692;23.342;2022-08-21T10:06:07;94660.78;;;24.91;59.75
52957;BME280;38819;42.692;23.342;2022-08-21T10:08:37;94659.63;;;24.85;59.92
52957;BME280;38819;42.692;23.342;2022-08-21T10:11:07;94667.06;;;24.99;60.16
52957;BME280;38819;42.692;23.342;2022-08-21T10:19:09;94655.16;;;25.20;59.05
52957;BME280;38819;42.692;23.342;2022-08-21T10:24:38;94643.31;;;25.27;59.99
52957;BME280;38819;42.692;23.342;2022-08-21T10:35:13;94639.78;;;25.23;59.25
52957;BME280;38819;42.692;23.342;2022-08-21T10:40:22;94634.66;;;25.14;58.58
52957;BME280;38819;42.692;23.342;2022-08-21T10:48:03;94616.84;;;25.26;58.76
52957;BME280;38819;42.692;23.342;2022-08-21T10:55:41;94614.75;;;25.55;58.93
52957;BME280;38819;42.692;23.342;2022-08-21T10:58:17;94601.28;;;25.64;58.38
52957;BME280;38819;42.692;23.342;2022-08-21T11:00:49;94599.66;;;25.67;58.09
52957;BME280;38819;42.692;23.342;2022-08-21T11:03:32;94596.84;;;25.78;57.29
52957;BME280;38819;42.692;23.342;2022-08-21T11:06:20;94595.25;;;25.77;56.80
52957;BME280;38819;42.692;23.342;2022-08-21T11:09:03;94596.50;;;25.68;58.26
52957;BME280;38819;42.692;23.342;2022-08-21T11:11:34;94587.13;;;25.51;57.96
52957;BME280;38819;42.692;23.342;2022-08-21T11:14:13;94588.38;;;25.43;57.88
52957;BME280;38819;42.692;23.342;2022-08-21T11:16:49;94572.19;;;25.42;58.16
52957;BME280;38819;42.692;23.342;2022-08-21T11:19:35;94576.53;;;25.43;58.33
52957;BME280;38819;42.692;23.342;2022-08-21T11:22:28;94581.28;;;25.39;58.62
52957;BME280;38819;42.692;23.342;2022-08-21T11:27:28;94571.50;;;25.20;57.54
52957;BME280;38819;42.692;23.342;2022-08-21T11:29:59;94575.00;;;25.24;57.50
52957;BME280;38819;42.692;23.342;2022-08-21T11:35:37;94570.69;;;25.19;57.87
52957;BME280;38819;42.692;23.342;2022-08-21T11:38:28;94572.31;;;25.13;58.31
52957;BME280;38819;42.692;23.342;2022-08-21T11:43:45;94572.59;;;25.37;56.83
52957;BME280;38819;42.692;23.342;2022-08-21T11:51:44;94562.88;;;25.74;57.67
52957;BME280;38819;42.692;23.342;2022-08-21T11:54:25;94567.19;;;25.78;57.17
52957;BME280;38819;42.692;23.342;2022-08-21T11:56:58;94557.69;;;25.83;57.69
52957;BME280;38819;42.692;23.342;2022-08-21T11:59:40;94562.78;;;25.88;57.65
52957;BME280;38819;42.692;23.342;2022-08-21T12:02:21;94555.34;;;25.78;55.53
52957;BME280;38819;42.692;23.342;2022-08-21T12:04:54;94559.28;;;25.80;55.20
52957;BME280;38819;42.692;23.342;2022-08-21T12:10:13;94548.25;;;25.77;54.41
52957;BME280;38819;42.692;23.342;2022-08-21T12:12:42;94548.34;;;25.62;54.04
52957;BME280;38819;42.692;23.342;2022-08-21T12:25:48;94554.22;;;25.72;54.96
52957;BME280;38819;42.692;23.342;2022-08-21T12:28:25;94555.34;;;25.74;55.13
52957;BME280;38819;42.692;23.342;2022-08-21T12:30:51;94549.75;;;25.85;55.00
52957;BME280;38819;42.692;23.342;2022-08-21T12:33:35;94562.75;;;25.95;55.16
52957;BME280;38819;42.692;23.342;2022-08-21T12:36:23;94559.13;;;26.02;54.59
52957;BME280;38819;42.692;23.342;2022-08-21T12:38:52;94555.19;;;25.99;55.53
52957;BME280;38819;42.692;23.342;2022-08-21T12:41:34;94548.78;;;26.10;55.24
52957;BME280;38819;42.692;23.342;2022-08-21T12:44:20;94550.44;;;26.03;54.36
52957;BME280;38819;42.692;23.342;2022-08-21T12:46:58;94548.09;;;25.98;54.70
52957;BME280;38819;42.692;23.342;2022-08-21T12:49:54;94547.78;;;25.85;55.30
52957;BME280;38819;42.692;23.342;2022-08-21T12:52:34;94543.00;;;25.86;55.59
52957;BME280;38819;42.692;23.342;2022-08-21T12:55:00;94541.91;;;25.80;55.02
52957;BME280;38819;42.692;23.342;2022-08-21T12:57:29;94547.44;;;25.80;55.09
52957;BME280;38819;42.692;23.342;2022-08-21T12:59:58;94541.50;;;25.81;55.52
52957;BME280;38819;42.692;23.342;2022-08-21T13:02:28;94544.28;;;25.74;55.28
52957;BME280;38819;42.692;23.342;2022-08-21T13:04:55;94543.94;;;25.72;55.00
52957;BME280;38819;42.692;23.342;2022-08-21T13:07:30;94537.63;;;25.72;55.02
52957;BME280;38819;42.692;23.342;2022-08-21T13:10:02;94538.38;;;25.76;54.32
52957;BME280;38819;42.692;23.342;2022-08-21T13:12:28;94527.66;;;25.81;54.86
52957;BME280;38819;42.692;23.342;2022-08-21T13:15:00;94534.69;;;25.93;55.15
52957;BME280;38819;42.692;23.342;2022-08-21T13:17:26;94528.38;;;25.96;54.83
52957;BME280;38819;42.692;23.342;2022-08-21T13:19:58;94538.13;;;26.08;54.99
52957;BME280;38819;42.692;23.342;2022-08-21T13:22:25;94532.56;;;26.12;55.15
52957;BME280;38819;42.692;23.342;2022-08-21T13:24:51;94523.03;;;26.16;55.76
52957;BME280;38819;42.692;23.342;2022-08-21T13:27:27;94518.84;;;25.97;55.44
52957;BME280;38819;42.692;23.342;2022-08-21T13:30:21;94518.91;;;25.90;55.83
52957;BME280;38819;42.692;23.342;2022-08-21T13:32:54;94508.34;;;25.74;56.30
52957;BME280;38819;42.692;23.342;2022-08-21T13:35:51;94496.97;;;25.65;56.57
52957;BME280;38819;42.692;23.342;2022-08-21T13:38:20;94487.50;;;25.62;56.10
52957;BME280;38819;42.692;23.342;2022-08-21T13:40:59;94486.34;;;25.60;57.28
52957;BME280;38819;42.692;23.342;2022-08-21T13:43:31;94492.25;;;25.62;56.77
52957;BME280;38819;42.692;23.342;2022-08-21T13:45:58;94512.34;;;25.69;56.74
52957;BME280;38819;42.692;23.342;2022-08-21T13:48:28;94502.50;;;25.65;56.91
52957;BME280;38819;42.692;23.342;2022-08-21T13:51:12;94506.72;;;25.80;56.53
52957;BME280;38819;42.692;23.342;2022-08-21T13:56:06;94498.25;;;26.02;56.74
52957;BME280;38819;42.692;23.342;2022-08-21T13:58:42;94502.50;;;26.14;56.71
52957;BME280;38819;42.692;23.342;2022-08-21T14:01:23;94505.97;;;26.21;56.48
52957;BME280;38819;42.692;23.342;2022-08-21T14:03:55;94506.72;;;26.25;56.46
52957;BME280;38819;42.692;23.342;2022-08-21T14:06:26;94496.88;;;26.24;56.50
52957;BME280;38819;42.692;23.342;2022-08-21T14:09:00;94489.75;;;26.23;56.63
52957;BME280;38819;42.692;23.342;2022-08-21T14:11:32;94483.50;;;26.16;56.21
52957;BME280;38819;42.692;23.342;2022-08-21T14:14:03;94502.41;;;26.24;55.76
52957;BME280;38819;42.692;23.342;2022-08-21T14:16:56;94487.56;;;26.04;56.01